Siegle, Louisiana
Current Conditions -  °F | °C
As of 7:18 AM on Friday 24 Oct 2014 (Local Time) from KMLU Reporting Station
Haze Haze  
Wind Chill: 45°   Ceiling: Unl
Heat Index: 45°   Visibility: 6mi
Dew Point: 43°   Wind: 0mph
Humidity: 93%   Direction: NA
Pressure: 30.17"   Gusts: NA
Location:  32.3932°N, 92.2204°W
Report Text: KMLU 241218Z 00000KT 6SM BR CLR 07/06 A3017 RMK AO2 T00720061
Loading
Personal Weather Stations






























Interactive Weather Map
Tropical Storm Tracking
New forecast layout! Learn more

10-Day Weather Forecast

Advertisements
Track Severe Weather on mobile